Halki — V7WP5 — position and weather

sailwx.info

Track history (hours):
 
Tides and Currents Weather Stations Pressure Air Temp Water Temp Dewpoint Dewpoint Depression Visibility Wind Speed Wind Dir Waves Ship Positions

Halki

Last reported at 2018-Jul-16 03:37 UTC. Time now 2018-Jul-16 04:50 UTC.
Position N 44°16' E 037°40'.

Length 186 m; draft 6.2 m.

Type: Cargo ship. MMSI: 538004361.

Date/timePositionNaut miles runAvg speedWind from/ knotsBaromVisibWave heightAir tempDewpointWater temp
2018-Jul-16 03:37N 44°16' E 037°40'0 0.3
2018-Jul-16 03:30N 44°16' E 037°40'0 0.4
2018-Jul-16 03:00N 44°16' E 037°40'0 0.4
2018-Jul-16 01:55N 44°16' E 037°41'0 0.5
2018-Jul-16 01:30N 44°16' E 037°41'0 0.7
2018-Jul-16 01:00N 44°16' E 037°41'0 0.7
2018-Jul-16 00:29N 44°16' E 037°42'0 0.8
2018-Jul-15 23:56N 44°17' E 037°42'1 0.7
2018-Jul-15 22:10N 44°18' E 037°43'0 0.6
2018-Jul-15 22:00N 44°18' E 037°43'0 0.7
2018-Jul-15 21:29N 44°18' E 037°43'1 0.7
2018-Jul-15 20:45N 44°19' E 037°43'0 0.8
2018-Jul-15 20:29N 44°19' E 037°43'1 1.6
2018-Jul-15 19:53N 44°20' E 037°42'1 1.8
2018-Jul-15 19:30N 44°21' E 037°42'1 1.8
2018-Jul-15 18:59N 44°21' E 037°41'1 1.9
2018-Jul-15 18:24N 44°22' E 037°40'2 1.9
2018-Jul-15 17:26N 44°24' E 037°39'1 1.9
2018-Jul-15 16:56N 44°24' E 037°38'1 1.9
2018-Jul-15 16:30N 44°25' E 037°37'0 0.8
2018-Jul-15 16:00N 44°25' E 037°37'1 1.9
2018-Jul-15 15:30N 44°24' E 037°36'510.2
2018-Jul-15 15:00N 44°23' E 037°29'  
2018-Jul-10 16:55N 41°15' E 036°27'  
2018-Jul-07 17:06N 37°34' E 023°48'210.9
2018-Jul-07 16:58N 37°35' E 023°47'511.5
2018-Jul-07 16:30N 37°39' E 023°43'611.4
2018-Jul-07 16:00N 37°45' E 023°40'510.5
2018-Jul-07 15:30N 37°49' E 023°37'4 7.3
2018-Jul-07 15:00N 37°52' E 023°34'1 2.5
2018-Jul-07 14:28N 37°53' E 023°32'0 0.0
2018-Jul-07 13:58N 37°53' E 023°32'0 0.0
2018-Jul-07 13:28N 37°53' E 023°32'0 0.0
2018-Jul-07 12:58N 37°53' E 023°32'0 0.0
2018-Jul-07 12:28N 37°53' E 023°32'0 0.0
2018-Jul-07 11:58N 37°53' E 023°32'0 0.0
2018-Jul-07 11:28N 37°53' E 023°32'0 0.0
2018-Jul-07 10:58N 37°53' E 023°32'0 0.0
2018-Jul-07 10:28N 37°53' E 023°32'0 0.0
2018-Jul-07 09:58N 37°53' E 023°32'0 0.0
2018-Jul-07 09:28N 37°53' E 023°32'0 0.0
2018-Jul-07 08:58N 37°53' E 023°32'0 0.0
2018-Jul-07 08:28N 37°53' E 023°32'0 0.0
2018-Jul-07 07:58N 37°53' E 023°32'0 0.0
2018-Jul-07 07:28N 37°53' E 023°32'0 0.0
2018-Jul-07 06:58N 37°53' E 023°32'0 0.0
2018-Jul-07 06:28N 37°53' E 023°32'0 0.0
2018-Jul-07 05:58N 37°53' E 023°32'0 0.0
2018-Jul-07 05:28N 37°53' E 023°32'0 0.0
2018-Jul-07 04:58N 37°53' E 023°32'0 0.1
2018-Jul-07 04:28N 37°53' E 023°32'0 0.4
2018-Jul-07 04:01N 37°53' E 023°32'1 2.4
2018-Jul-07 03:31N 37°51' E 023°33'3 6.1
2018-Jul-07 03:01N 37°51' E 023°36'3 5.2
2018-Jul-07 02:31N 37°50' E 023°40'4 8.7
2018-Jul-07 02:01N 37°46' E 023°42'5 9.8
2018-Jul-07 01:31N 37°42' E 023°45'611.4
2018-Jul-07 01:00N 37°36' E 023°45'612.1
2018-Jul-07 00:30N 37°30' E 023°44'612.0
2018-Jul-07 00:01N 37°24' E 023°42'612.0
2018-Jul-06 23:31N 37°18' E 023°41'510.9
2018-Jul-06 23:01N 37°13' E 023°40'910.9
2018-Jul-06 22:13N 37°04' E 023°38'210.6
2018-Jul-06 22:01N 37°02' E 023°37'510.4
2018-Jul-06 21:31N 36°57' E 023°36'510.5
2018-Jul-06 21:00N 36°52' E 023°34'510.8
2018-Jul-06 20:30N 36°47' E 023°32'510.5
2018-Jul-06 20:01N 36°42' E 023°30'  
Track history (hours):
 
Tides and Currents Weather Stations Pressure Air Temp Water Temp Dewpoint Dewpoint Depression Visibility Wind Speed Wind Dir Waves Ship Positions

Halki

Last reported at 2018-Jul-16 03:37 UTC. Time now 2018-Jul-16 04:50 UTC.
Position N 44°16' E 037°40'.

Length 186 m; draft 6.2 m.

Type: Cargo ship. MMSI: 538004361.

Date/timePositionNaut miles runAvg speedWind from/ knotsBaromVisibWave heightAir tempDewpointWater temp
2018-Jul-16 03:37N 44°16' E 037°40'0 0.3
2018-Jul-16 03:30N 44°16' E 037°40'0 0.4
2018-Jul-16 03:00N 44°16' E 037°40'0 0.4
2018-Jul-16 01:55N 44°16' E 037°41'0 0.5
2018-Jul-16 01:30N 44°16' E 037°41'0 0.7
2018-Jul-16 01:00N 44°16' E 037°41'0 0.7
2018-Jul-16 00:29N 44°16' E 037°42'0 0.8
2018-Jul-15 23:56N 44°17' E 037°42'1 0.7
2018-Jul-15 22:10N 44°18' E 037°43'0 0.6
2018-Jul-15 22:00N 44°18' E 037°43'0 0.7
2018-Jul-15 21:29N 44°18' E 037°43'1 0.7
2018-Jul-15 20:45N 44°19' E 037°43'0 0.8
2018-Jul-15 20:29N 44°19' E 037°43'1 1.6
2018-Jul-15 19:53N 44°20' E 037°42'1 1.8
2018-Jul-15 19:30N 44°21' E 037°42'1 1.8
2018-Jul-15 18:59N 44°21' E 037°41'1 1.9
2018-Jul-15 18:24N 44°22' E 037°40'2 1.9
2018-Jul-15 17:26N 44°24' E 037°39'1 1.9
2018-Jul-15 16:56N 44°24' E 037°38'1 1.9
2018-Jul-15 16:30N 44°25' E 037°37'0 0.8
2018-Jul-15 16:00N 44°25' E 037°37'1 1.9
2018-Jul-15 15:30N 44°24' E 037°36'510.2
2018-Jul-15 15:00N 44°23' E 037°29'  
2018-Jul-10 16:55N 41°15' E 036°27'  
2018-Jul-07 17:06N 37°34' E 023°48'210.9
2018-Jul-07 16:58N 37°35' E 023°47'511.5
2018-Jul-07 16:30N 37°39' E 023°43'611.4
2018-Jul-07 16:00N 37°45' E 023°40'510.5
2018-Jul-07 15:30N 37°49' E 023°37'4 7.3
2018-Jul-07 15:00N 37°52' E 023°34'1 2.5
2018-Jul-07 14:28N 37°53' E 023°32'0 0.0
2018-Jul-07 13:58N 37°53' E 023°32'0 0.0
2018-Jul-07 13:28N 37°53' E 023°32'0 0.0
2018-Jul-07 12:58N 37°53' E 023°32'0 0.0
2018-Jul-07 12:28N 37°53' E 023°32'0 0.0
2018-Jul-07 11:58N 37°53' E 023°32'0 0.0
2018-Jul-07 11:28N 37°53' E 023°32'0 0.0
2018-Jul-07 10:58N 37°53' E 023°32'0 0.0
2018-Jul-07 10:28N 37°53' E 023°32'0 0.0
2018-Jul-07 09:58N 37°53' E 023°32'0 0.0
2018-Jul-07 09:28N 37°53' E 023°32'0 0.0
2018-Jul-07 08:58N 37°53' E 023°32'0 0.0
2018-Jul-07 08:28N 37°53' E 023°32'0 0.0
2018-Jul-07 07:58N 37°53' E 023°32'0 0.0
2018-Jul-07 07:28N 37°53' E 023°32'0 0.0
2018-Jul-07 06:58N 37°53' E 023°32'0 0.0
2018-Jul-07 06:28N 37°53' E 023°32'0 0.0
2018-Jul-07 05:58N 37°53' E 023°32'0 0.0
2018-Jul-07 05:28N 37°53' E 023°32'0 0.0
2018-Jul-07 04:58N 37°53' E 023°32'0 0.1
2018-Jul-07 04:28N 37°53' E 023°32'0 0.4
2018-Jul-07 04:01N 37°53' E 023°32'1 2.4
2018-Jul-07 03:31N 37°51' E 023°33'3 6.1
2018-Jul-07 03:01N 37°51' E 023°36'3 5.2
2018-Jul-07 02:31N 37°50' E 023°40'4 8.7
2018-Jul-07 02:01N 37°46' E 023°42'5 9.8
2018-Jul-07 01:31N 37°42' E 023°45'611.4
2018-Jul-07 01:00N 37°36' E 023°45'612.1
2018-Jul-07 00:30N 37°30' E 023°44'612.0
2018-Jul-07 00:01N 37°24' E 023°42'612.0
2018-Jul-06 23:31N 37°18' E 023°41'510.9
2018-Jul-06 23:01N 37°13' E 023°40'910.9
2018-Jul-06 22:13N 37°04' E 023°38'210.6
2018-Jul-06 22:01N 37°02' E 023°37'510.4
2018-Jul-06 21:31N 36°57' E 023°36'510.5
2018-Jul-06 21:00N 36°52' E 023°34'510.8
2018-Jul-06 20:30N 36°47' E 023°32'510.5
2018-Jul-06 20:01N 36°42' E 023°30'  

Dump ship's entire track history